Terminal Aerodrome Forecast
Issued by NWS

Home | Current Version | Previous Version | Text Only | Print | Product List | Glossary On
Versions: 1 2 3 4 5 6 7 8 9 10 11 12
139
FTUS46 KMTR 130529
TAFSJC
TAF
KSJC 130529Z 1306/1406 30003KT P6SM FEW110 SCT220
     FM130800 VRB03KT P6SM FEW012 SCT250
     FM132000 30009KT P6SM SCT250
     FM140400 31004KT P6SM FEW250=

USA.gov is the U.S. government's official web portal to all federal, state and local government web resources and services.